Albany, New York
Traffic Map
Current Weather Conditions
Albany, New York
Overcast
Overcast
64°
Feels Like: 64°
Wind Chill: 64° Ceiling: 2600
Heat Index: 64° Visibility: 10mi
Dew Point: 58° Wind: 6mph
Humidity: 80% Direction: 350° (N)
Pressure: 30.08in Gusts: 0mph
Raw Report DataKALB 011821Z 35005KT 10SM SCT014 BKN026 OVC090 18/14 A3008 RMK AO2 T01780144
Traffic Incident Summary
Active as of:
Severity:
Category:
InformationThere was an issue retrieving the traffic information for this location. Please try a different location or try again shortly.
Advertisements
Track Severe Weather on mobile